East Corinth, VT (05040)

10:21 AM EDT on July 30, 2016 (GMT -0400)
Goshen Heights | | Change Station

Elev 1060 ft 44.01 °N, 72.14 °W | Updated 16 seconds ago

Clear
Clear
70.3 °F
Feels Like 75 °F
N
0.0
Wind Variable Wind from NNW
Gusts 3.0 mph

Today
High -- | Low -- °F
--% Chance of Precip.
Yesterday
High -- | Low -- °F
Precip. -- in
Pressure 30.13 in
Visibility 10.0 miles
Clouds Clear
Heat Index 75 °F
Dew Point 58 °F
Humidity 65%
Rainfall 0.00 in
Snow Depth Not available.
5:35 AM 8:14 PM
Waning Crescent, 13% visible
METAR KMPV 301351Z AUTO 00000KT 10SM CLR 18/12 A3013 RMK AO2 SLP203 T01830122 $
Pressure 30.13 in
Visibility 10.0 miles
Clouds Clear
Heat Index 75 °F
Dew Point 58 °F
Humidity 65%
Rainfall 0.00 in
Snow Depth Not available.
5:35 AM 8:14 PM
Waning Crescent, 13% visible
METAR KMPV 301351Z AUTO 00000KT 10SM CLR 18/12 A3013 RMK AO2 SLP203 T01830122 $

10-Day Weather Forecast

Almanac

Astronomy

Jul. 30, 2016 Rise Set
Actual Time
Civil Twilight
Nautical Twilight
Astronomical Twilight
Moon
Length of Visible Light
Length of Day
Tomorrow will be .
, % of the Moon is Illuminated

Today's Extremes

State Highs State Lows

Community

WunderPhotos

Upload Photos

1,928,565 photos uploaded!

WunderBlog® & News

Nearby

Air Quality

  Air Quality AQ Index Pollutant
Not available.

Snow Depth

Station Depth Elevation

Earthquake Activity

City Distance Mag. Time & Date
Minimum magnitude displayed is 2.5.

Coastal Water Temperatures

Place Temperature

Stations

Nearby Weather Stations

Station Location Temp. Windchill Dew Point Humidity Wind Precip. Elev Updated Type
                   

Watches & Warnings

There are currently no watches in effect.